sensor_id;sensor_type;location;lat;lon;timestamp;P1;durP1;ratioP1;P2;durP2;ratioP2
6406;SDS011;3236;51.022;6.818;2022-11-20T00:00:25;27.23;;;14.18;;
6406;SDS011;3236;51.022;6.818;2022-11-20T00:02:52;27.10;;;13.77;;
6406;SDS011;3236;51.022;6.818;2022-11-20T00:05:20;26.48;;;12.75;;
6406;SDS011;3236;51.022;6.818;2022-11-20T00:07:47;26.65;;;12.80;;
6406;SDS011;3236;51.022;6.818;2022-11-20T00:10:14;24.60;;;12.45;;
6406;SDS011;3236;51.022;6.818;2022-11-20T00:12:41;27.85;;;13.20;;
6406;SDS011;3236;51.022;6.818;2022-11-20T00:15:23;28.70;;;13.90;;
6406;SDS011;3236;51.022;6.818;2022-11-20T00:17:50;26.92;;;13.10;;
6406;SDS011;3236;51.022;6.818;2022-11-20T00:20:17;25.95;;;12.70;;
6406;SDS011;3236;51.022;6.818;2022-11-20T00:22:45;22.08;;;12.18;;
6406;SDS011;3236;51.022;6.818;2022-11-20T00:25:14;23.88;;;12.85;;
6406;SDS011;3236;51.022;6.818;2022-11-20T00:27:42;30.70;;;13.52;;
6406;SDS011;3236;51.022;6.818;2022-11-20T00:30:09;27.83;;;13.13;;
6406;SDS011;3236;51.022;6.818;2022-11-20T00:32:38;26.00;;;12.95;;
6406;SDS011;3236;51.022;6.818;2022-11-20T00:35:05;24.45;;;12.98;;
6406;SDS011;3236;51.022;6.818;2022-11-20T00:37:32;27.73;;;14.10;;
6406;SDS011;3236;51.022;6.818;2022-11-20T00:40:00;24.73;;;12.88;;
6406;SDS011;3236;51.022;6.818;2022-11-20T00:42:27;23.20;;;12.70;;
6406;SDS011;3236;51.022;6.818;2022-11-20T00:44:54;25.20;;;12.65;;
6406;SDS011;3236;51.022;6.818;2022-11-20T00:47:21;23.98;;;13.25;;
6406;SDS011;3236;51.022;6.818;2022-11-20T00:49:50;28.58;;;13.32;;
6406;SDS011;3236;51.022;6.818;2022-11-20T00:52:20;23.45;;;13.00;;
6406;SDS011;3236;51.022;6.818;2022-11-20T00:54:47;23.65;;;12.43;;
6406;SDS011;3236;51.022;6.818;2022-11-20T00:57:14;25.05;;;13.00;;
6406;SDS011;3236;51.022;6.818;2022-11-20T00:59:41;26.38;;;13.00;;
6406;SDS011;3236;51.022;6.818;2022-11-20T01:02:08;28.30;;;12.88;;
6406;SDS011;3236;51.022;6.818;2022-11-20T01:04:35;29.35;;;13.13;;
6406;SDS011;3236;51.022;6.818;2022-11-20T01:07:04;23.60;;;12.60;;
6406;SDS011;3236;51.022;6.818;2022-11-20T01:09:31;23.85;;;12.60;;
6406;SDS011;3236;51.022;6.818;2022-11-20T01:11:58;27.05;;;13.95;;
6406;SDS011;3236;51.022;6.818;2022-11-20T01:14:25;29.25;;;12.95;;
6406;SDS011;3236;51.022;6.818;2022-11-20T01:16:52;27.90;;;13.35;;
6406;SDS011;3236;51.022;6.818;2022-11-20T01:19:20;29.92;;;14.27;;
6406;SDS011;3236;51.022;6.818;2022-11-20T01:21:50;24.85;;;13.10;;
6406;SDS011;3236;51.022;6.818;2022-11-20T01:24:20;22.77;;;12.15;;
6406;SDS011;3236;51.022;6.818;2022-11-20T01:26:48;27.33;;;13.40;;
6406;SDS011;3236;51.022;6.818;2022-11-20T01:29:17;23.73;;;12.80;;
6406;SDS011;3236;51.022;6.818;2022-11-20T01:31:46;25.55;;;13.73;;
6406;SDS011;3236;51.022;6.818;2022-11-20T01:34:14;28.95;;;13.98;;
6406;SDS011;3236;51.022;6.818;2022-11-20T01:36:43;25.60;;;12.95;;
6406;SDS011;3236;51.022;6.818;2022-11-20T01:39:11;26.60;;;12.35;;
6406;SDS011;3236;51.022;6.818;2022-11-20T01:41:42;23.73;;;12.25;;
6406;SDS011;3236;51.022;6.818;2022-11-20T01:47:20;27.05;;;13.27;;
6406;SDS011;3236;51.022;6.818;2022-11-20T01:49:56;23.33;;;12.02;;
6406;SDS011;3236;51.022;6.818;2022-11-20T01:52:28;25.63;;;12.70;;
6406;SDS011;3236;51.022;6.818;2022-11-20T01:54:59;24.98;;;12.80;;
6406;SDS011;3236;51.022;6.818;2022-11-20T01:57:32;25.90;;;13.50;;
6406;SDS011;3236;51.022;6.818;2022-11-20T02:00:05;28.95;;;13.70;;
6406;SDS011;3236;51.022;6.818;2022-11-20T02:02:34;28.30;;;13.93;;
6406;SDS011;3236;51.022;6.818;2022-11-20T02:05:03;27.00;;;13.02;;
6406;SDS011;3236;51.022;6.818;2022-11-20T02:07:38;29.10;;;13.90;;
6406;SDS011;3236;51.022;6.818;2022-11-20T02:10:07;26.70;;;14.00;;
6406;SDS011;3236;51.022;6.818;2022-11-20T02:12:35;25.05;;;13.15;;
6406;SDS011;3236;51.022;6.818;2022-11-20T02:15:20;24.90;;;13.38;;
6406;SDS011;3236;51.022;6.818;2022-11-20T02:17:47;23.33;;;12.20;;
6406;SDS011;3236;51.022;6.818;2022-11-20T02:20:18;21.92;;;11.38;;
6406;SDS011;3236;51.022;6.818;2022-11-20T02:22:49;24.75;;;13.50;;
6406;SDS011;3236;51.022;6.818;2022-11-20T02:25:25;25.70;;;13.45;;
6406;SDS011;3236;51.022;6.818;2022-11-20T02:27:53;28.90;;;13.73;;
6406;SDS011;3236;51.022;6.818;2022-11-20T02:30:21;28.95;;;14.10;;
6406;SDS011;3236;51.022;6.818;2022-11-20T02:32:48;27.45;;;13.77;;
6406;SDS011;3236;51.022;6.818;2022-11-20T02:38:10;26.92;;;13.43;;
6406;SDS011;3236;51.022;6.818;2022-11-20T02:40:39;31.25;;;12.93;;
6406;SDS011;3236;51.022;6.818;2022-11-20T02:43:07;25.27;;;13.00;;
6406;SDS011;3236;51.022;6.818;2022-11-20T02:45:34;27.80;;;14.30;;
6406;SDS011;3236;51.022;6.818;2022-11-20T02:48:01;27.02;;;13.15;;
6406;SDS011;3236;51.022;6.818;2022-11-20T02:50:30;28.80;;;13.52;;
6406;SDS011;3236;51.022;6.818;2022-11-20T02:53:00;27.55;;;14.32;;
6406;SDS011;3236;51.022;6.818;2022-11-20T02:55:27;28.88;;;13.40;;
6406;SDS011;3236;51.022;6.818;2022-11-20T02:57:56;25.98;;;13.07;;
6406;SDS011;3236;51.022;6.818;2022-11-20T03:00:23;24.92;;;12.88;;
6406;SDS011;3236;51.022;6.818;2022-11-20T03:02:50;25.67;;;12.73;;
6406;SDS011;3236;51.022;6.818;2022-11-20T03:05:17;25.35;;;12.63;;
6406;SDS011;3236;51.022;6.818;2022-11-20T03:07:44;25.60;;;13.07;;
6406;SDS011;3236;51.022;6.818;2022-11-20T03:10:12;28.35;;;14.07;;
6406;SDS011;3236;51.022;6.818;2022-11-20T03:12:39;25.52;;;13.20;;
6406;SDS011;3236;51.022;6.818;2022-11-20T03:15:08;25.50;;;11.85;;
6406;SDS011;3236;51.022;6.818;2022-11-20T03:17:36;25.40;;;13.13;;
6406;SDS011;3236;51.022;6.818;2022-11-20T03:20:04;29.90;;;12.60;;
6406;SDS011;3236;51.022;6.818;2022-11-20T03:22:32;24.80;;;12.77;;
6406;SDS011;3236;51.022;6.818;2022-11-20T03:24:59;24.48;;;12.55;;
6406;SDS011;3236;51.022;6.818;2022-11-20T03:27:26;30.80;;;14.20;;
6406;SDS011;3236;51.022;6.818;2022-11-20T03:29:57;25.77;;;12.77;;
6406;SDS011;3236;51.022;6.818;2022-11-20T03:32:26;24.52;;;12.65;;
6406;SDS011;3236;51.022;6.818;2022-11-20T03:34:53;24.98;;;12.43;;
6406;SDS011;3236;51.022;6.818;2022-11-20T03:37:20;27.58;;;13.00;;
6406;SDS011;3236;51.022;6.818;2022-11-20T03:39:47;29.48;;;13.25;;
6406;SDS011;3236;51.022;6.818;2022-11-20T03:42:15;26.27;;;13.10;;
6406;SDS011;3236;51.022;6.818;2022-11-20T03:44:55;26.60;;;13.00;;
6406;SDS011;3236;51.022;6.818;2022-11-20T03:47:22;26.88;;;12.75;;
6406;SDS011;3236;51.022;6.818;2022-11-20T03:49:51;24.58;;;13.07;;
6406;SDS011;3236;51.022;6.818;2022-11-20T03:52:18;27.95;;;12.60;;
6406;SDS011;3236;51.022;6.818;2022-11-20T03:54:48;28.88;;;14.38;;
6406;SDS011;3236;51.022;6.818;2022-11-20T03:57:16;29.33;;;13.63;;
6406;SDS011;3236;51.022;6.818;2022-11-20T03:59:43;26.23;;;13.38;;
6406;SDS011;3236;51.022;6.818;2022-11-20T04:02:10;26.15;;;14.20;;
6406;SDS011;3236;51.022;6.818;2022-11-20T04:04:37;24.60;;;13.70;;
6406;SDS011;3236;51.022;6.818;2022-11-20T04:07:06;29.45;;;14.55;;
6406;SDS011;3236;51.022;6.818;2022-11-20T04:09:36;24.05;;;12.80;;
6406;SDS011;3236;51.022;6.818;2022-11-20T04:12:03;26.75;;;13.57;;
6406;SDS011;3236;51.022;6.818;2022-11-20T04:14:31;31.02;;;14.05;;
6406;SDS011;3236;51.022;6.818;2022-11-20T04:16:58;30.02;;;15.10;;
6406;SDS011;3236;51.022;6.818;2022-11-20T04:19:25;30.33;;;14.15;;
6406;SDS011;3236;51.022;6.818;2022-11-20T04:21:52;27.90;;;14.27;;
6406;SDS011;3236;51.022;6.818;2022-11-20T04:24:21;29.55;;;13.27;;
6406;SDS011;3236;51.022;6.818;2022-11-20T04:26:48;28.42;;;13.75;;
6406;SDS011;3236;51.022;6.818;2022-11-20T04:29:15;26.67;;;14.30;;
6406;SDS011;3236;51.022;6.818;2022-11-20T04:31:45;28.05;;;14.00;;
6406;SDS011;3236;51.022;6.818;2022-11-20T04:34:13;29.75;;;13.73;;
6406;SDS011;3236;51.022;6.818;2022-11-20T04:36:40;27.70;;;13.63;;
6406;SDS011;3236;51.022;6.818;2022-11-20T04:39:11;27.92;;;14.23;;
6406;SDS011;3236;51.022;6.818;2022-11-20T04:41:40;30.45;;;14.07;;
6406;SDS011;3236;51.022;6.818;2022-11-20T04:44:08;29.30;;;14.30;;
6406;SDS011;3236;51.022;6.818;2022-11-20T04:46:36;30.35;;;14.70;;
6406;SDS011;3236;51.022;6.818;2022-11-20T04:49:04;25.23;;;13.35;;
6406;SDS011;3236;51.022;6.818;2022-11-20T04:51:32;24.40;;;14.02;;
6406;SDS011;3236;51.022;6.818;2022-11-20T04:53:59;30.27;;;13.68;;
6406;SDS011;3236;51.022;6.818;2022-11-20T04:56:32;29.25;;;14.48;;
6406;SDS011;3236;51.022;6.818;2022-11-20T04:59:02;28.42;;;13.77;;
6406;SDS011;3236;51.022;6.818;2022-11-20T05:01:29;27.40;;;13.50;;
6406;SDS011;3236;51.022;6.818;2022-11-20T05:04:00;27.90;;;13.68;;
6406;SDS011;3236;51.022;6.818;2022-11-20T05:06:27;28.85;;;14.57;;
6406;SDS011;3236;51.022;6.818;2022-11-20T05:08:54;29.05;;;14.57;;
6406;SDS011;3236;51.022;6.818;2022-11-20T05:11:21;26.75;;;13.95;;
6406;SDS011;3236;51.022;6.818;2022-11-20T05:13:49;29.67;;;15.23;;
6406;SDS011;3236;51.022;6.818;2022-11-20T05:16:19;29.13;;;15.10;;
6406;SDS011;3236;51.022;6.818;2022-11-20T05:18:48;34.30;;;16.05;;
6406;SDS011;3236;51.022;6.818;2022-11-20T05:21:16;29.52;;;15.15;;
6406;SDS011;3236;51.022;6.818;2022-11-20T05:23:43;28.17;;;13.82;;
6406;SDS011;3236;51.022;6.818;2022-11-20T05:26:15;28.23;;;13.40;;
6406;SDS011;3236;51.022;6.818;2022-11-20T05:28:44;26.92;;;14.23;;
6406;SDS011;3236;51.022;6.818;2022-11-20T05:31:12;30.52;;;15.30;;
6406;SDS011;3236;51.022;6.818;2022-11-20T05:33:42;27.75;;;13.80;;
6406;SDS011;3236;51.022;6.818;2022-11-20T05:36:11;32.13;;;14.07;;
6406;SDS011;3236;51.022;6.818;2022-11-20T05:38:38;33.65;;;15.32;;
6406;SDS011;3236;51.022;6.818;2022-11-20T05:41:06;29.95;;;15.52;;
6406;SDS011;3236;51.022;6.818;2022-11-20T05:43:35;27.80;;;14.50;;
6406;SDS011;3236;51.022;6.818;2022-11-20T05:46:03;31.15;;;15.02;;
6406;SDS011;3236;51.022;6.818;2022-11-20T05:48:32;28.83;;;14.10;;
6406;SDS011;3236;51.022;6.818;2022-11-20T05:51:02;26.55;;;14.70;;
6406;SDS011;3236;51.022;6.818;2022-11-20T05:53:31;31.10;;;15.45;;
6406;SDS011;3236;51.022;6.818;2022-11-20T05:55:59;31.27;;;15.85;;
6406;SDS011;3236;51.022;6.818;2022-11-20T05:58:27;30.50;;;14.52;;
6406;SDS011;3236;51.022;6.818;2022-11-20T06:01:02;26.70;;;14.05;;
6406;SDS011;3236;51.022;6.818;2022-11-20T06:03:30;31.98;;;15.13;;
6406;SDS011;3236;51.022;6.818;2022-11-20T06:05:58;29.95;;;15.05;;
6406;SDS011;3236;51.022;6.818;2022-11-20T06:08:27;36.78;;;16.27;;
6406;SDS011;3236;51.022;6.818;2022-11-20T06:10:54;35.85;;;17.08;;
6406;SDS011;3236;51.022;6.818;2022-11-20T06:13:21;31.83;;;15.02;;
6406;SDS011;3236;51.022;6.818;2022-11-20T06:15:49;35.25;;;16.02;;
6406;SDS011;3236;51.022;6.818;2022-11-20T06:18:17;35.45;;;16.35;;
6406;SDS011;3236;51.022;6.818;2022-11-20T06:20:45;33.63;;;15.93;;
6406;SDS011;3236;51.022;6.818;2022-11-20T06:23:13;33.53;;;16.00;;
6406;SDS011;3236;51.022;6.818;2022-11-20T06:25:42;32.67;;;15.77;;
6406;SDS011;3236;51.022;6.818;2022-11-20T06:28:09;33.90;;;15.75;;
6406;SDS011;3236;51.022;6.818;2022-11-20T06:30:36;33.05;;;14.75;;
6406;SDS011;3236;51.022;6.818;2022-11-20T06:33:03;33.67;;;16.17;;
6406;SDS011;3236;51.022;6.818;2022-11-20T06:35:30;34.75;;;16.50;;
6406;SDS011;3236;51.022;6.818;2022-11-20T06:37:58;34.53;;;14.23;;
6406;SDS011;3236;51.022;6.818;2022-11-20T06:40:25;33.63;;;14.93;;
6406;SDS011;3236;51.022;6.818;2022-11-20T06:42:54;30.23;;;15.00;;
6406;SDS011;3236;51.022;6.818;2022-11-20T06:45:21;29.00;;;14.50;;
6406;SDS011;3236;51.022;6.818;2022-11-20T06:47:48;34.55;;;15.77;;
6406;SDS011;3236;51.022;6.818;2022-11-20T06:50:16;28.88;;;14.15;;
6406;SDS011;3236;51.022;6.818;2022-11-20T06:52:43;27.40;;;14.27;;
6406;SDS011;3236;51.022;6.818;2022-11-20T06:55:10;30.98;;;14.38;;
6406;SDS011;3236;51.022;6.818;2022-11-20T06:57:37;30.70;;;15.23;;
6406;SDS011;3236;51.022;6.818;2022-11-20T07:00:06;33.22;;;15.52;;
6406;SDS011;3236;51.022;6.818;2022-11-20T07:02:37;32.17;;;15.93;;
6406;SDS011;3236;51.022;6.818;2022-11-20T07:05:04;32.53;;;16.45;;
6406;SDS011;3236;51.022;6.818;2022-11-20T07:07:32;49.90;;;23.02;;
6406;SDS011;3236;51.022;6.818;2022-11-20T07:09:59;43.50;;;20.88;;
6406;SDS011;3236;51.022;6.818;2022-11-20T07:12:26;36.38;;;16.75;;
6406;SDS011;3236;51.022;6.818;2022-11-20T07:14:56;44.50;;;20.58;;
6406;SDS011;3236;51.022;6.818;2022-11-20T07:17:25;43.15;;;20.10;;
6406;SDS011;3236;51.022;6.818;2022-11-20T07:19:53;36.97;;;18.45;;
6406;SDS011;3236;51.022;6.818;2022-11-20T07:22:23;41.60;;;17.42;;
6406;SDS011;3236;51.022;6.818;2022-11-20T07:24:50;40.08;;;18.23;;
6406;SDS011;3236;51.022;6.818;2022-11-20T07:27:18;40.33;;;17.85;;
6406;SDS011;3236;51.022;6.818;2022-11-20T07:29:45;38.40;;;18.42;;
6406;SDS011;3236;51.022;6.818;2022-11-20T07:32:13;31.88;;;16.20;;
6406;SDS011;3236;51.022;6.818;2022-11-20T07:34:41;33.83;;;16.60;;
6406;SDS011;3236;51.022;6.818;2022-11-20T07:37:09;34.10;;;16.55;;
6406;SDS011;3236;51.022;6.818;2022-11-20T07:39:37;32.45;;;16.63;;
6406;SDS011;3236;51.022;6.818;2022-11-20T07:42:04;35.25;;;16.27;;
6406;SDS011;3236;51.022;6.818;2022-11-20T07:44:33;32.70;;;14.82;;
6406;SDS011;3236;51.022;6.818;2022-11-20T07:47:00;32.83;;;16.48;;
6406;SDS011;3236;51.022;6.818;2022-11-20T07:49:27;33.45;;;15.82;;
6406;SDS011;3236;51.022;6.818;2022-11-20T07:51:56;31.15;;;14.15;;
6406;SDS011;3236;51.022;6.818;2022-11-20T07:54:23;28.50;;;15.35;;
6406;SDS011;3236;51.022;6.818;2022-11-20T07:56:50;30.23;;;15.48;;
6406;SDS011;3236;51.022;6.818;2022-11-20T07:59:17;39.47;;;16.67;;
6406;SDS011;3236;51.022;6.818;2022-11-20T08:01:45;32.30;;;15.65;;
6406;SDS011;3236;51.022;6.818;2022-11-20T08:04:12;35.65;;;17.45;;
6406;SDS011;3236;51.022;6.818;2022-11-20T08:06:41;35.22;;;15.75;;
6406;SDS011;3236;51.022;6.818;2022-11-20T08:09:10;35.13;;;16.33;;
6406;SDS011;3236;51.022;6.818;2022-11-20T08:11:37;30.95;;;16.00;;
6406;SDS011;3236;51.022;6.818;2022-11-20T08:14:23;32.65;;;15.95;;
6406;SDS011;3236;51.022;6.818;2022-11-20T08:16:52;40.03;;;17.17;;
6406;SDS011;3236;51.022;6.818;2022-11-20T08:19:20;42.95;;;19.63;;
6406;SDS011;3236;51.022;6.818;2022-11-20T08:21:47;33.67;;;18.02;;
6406;SDS011;3236;51.022;6.818;2022-11-20T08:24:16;36.42;;;17.90;;
6406;SDS011;3236;51.022;6.818;2022-11-20T08:26:43;40.83;;;18.85;;
6406;SDS011;3236;51.022;6.818;2022-11-20T08:29:10;39.97;;;19.38;;
6406;SDS011;3236;51.022;6.818;2022-11-20T08:31:37;32.05;;;14.98;;
6406;SDS011;3236;51.022;6.818;2022-11-20T08:34:05;35.88;;;16.55;;
6406;SDS011;3236;51.022;6.818;2022-11-20T08:36:32;31.98;;;14.95;;
6406;SDS011;3236;51.022;6.818;2022-11-20T08:39:03;32.10;;;15.77;;
6406;SDS011;3236;51.022;6.818;2022-11-20T08:41:31;30.13;;;15.77;;
6406;SDS011;3236;51.022;6.818;2022-11-20T08:43:59;32.42;;;16.13;;
6406;SDS011;3236;51.022;6.818;2022-11-20T08:46:31;31.27;;;16.80;;
6406;SDS011;3236;51.022;6.818;2022-11-20T08:49:00;29.08;;;14.93;;
6406;SDS011;3236;51.022;6.818;2022-11-20T08:51:27;29.20;;;14.13;;
6406;SDS011;3236;51.022;6.818;2022-11-20T08:53:54;28.83;;;15.07;;
6406;SDS011;3236;51.022;6.818;2022-11-20T08:56:22;30.77;;;15.73;;
6406;SDS011;3236;51.022;6.818;2022-11-20T08:58:51;28.63;;;14.40;;
6406;SDS011;3236;51.022;6.818;2022-11-20T09:01:18;26.85;;;13.75;;
6406;SDS011;3236;51.022;6.818;2022-11-20T09:03:47;30.38;;;14.00;;
6406;SDS011;3236;51.022;6.818;2022-11-20T09:06:17;28.30;;;13.63;;
6406;SDS011;3236;51.022;6.818;2022-11-20T09:08:44;33.33;;;15.57;;
6406;SDS011;3236;51.022;6.818;2022-11-20T09:11:11;93.57;;;30.95;;
6406;SDS011;3236;51.022;6.818;2022-11-20T09:13:41;38.35;;;16.80;;
6406;SDS011;3236;51.022;6.818;2022-11-20T09:16:10;27.85;;;12.70;;
6406;SDS011;3236;51.022;6.818;2022-11-20T09:18:37;29.08;;;12.73;;
6406;SDS011;3236;51.022;6.818;2022-11-20T09:21:16;27.63;;;13.48;;
6406;SDS011;3236;51.022;6.818;2022-11-20T09:23:43;23.27;;;11.95;;
6406;SDS011;3236;51.022;6.818;2022-11-20T09:26:11;23.98;;;12.55;;
6406;SDS011;3236;51.022;6.818;2022-11-20T09:28:40;25.08;;;12.50;;
6406;SDS011;3236;51.022;6.818;2022-11-20T09:31:07;24.70;;;13.13;;
6406;SDS011;3236;51.022;6.818;2022-11-20T09:33:48;27.30;;;13.93;;
6406;SDS011;3236;51.022;6.818;2022-11-20T09:36:15;29.08;;;14.55;;
6406;SDS011;3236;51.022;6.818;2022-11-20T09:38:43;30.55;;;13.10;;
6406;SDS011;3236;51.022;6.818;2022-11-20T09:41:18;29.70;;;13.73;;
6406;SDS011;3236;51.022;6.818;2022-11-20T09:44:01;27.10;;;12.90;;
6406;SDS011;3236;51.022;6.818;2022-11-20T09:46:40;25.88;;;12.38;;
6406;SDS011;3236;51.022;6.818;2022-11-20T09:49:15;29.08;;;14.38;;
6406;SDS011;3236;51.022;6.818;2022-11-20T09:51:53;36.45;;;17.05;;
6406;SDS011;3236;51.022;6.818;2022-11-20T09:54:26;26.40;;;13.00;;
6406;SDS011;3236;51.022;6.818;2022-11-20T09:56:58;24.52;;;13.02;;
6406;SDS011;3236;51.022;6.818;2022-11-20T09:59:36;29.52;;;12.77;;
6406;SDS011;3236;51.022;6.818;2022-11-20T10:02:12;31.98;;;15.35;;
6406;SDS011;3236;51.022;6.818;2022-11-20T10:04:47;29.15;;;14.27;;
6406;SDS011;3236;51.022;6.818;2022-11-20T10:07:20;32.45;;;15.73;;
6406;SDS011;3236;51.022;6.818;2022-11-20T10:09:52;33.78;;;15.27;;
6406;SDS011;3236;51.022;6.818;2022-11-20T10:12:23;35.80;;;16.35;;
6406;SDS011;3236;51.022;6.818;2022-11-20T10:15:06;32.60;;;15.85;;
6406;SDS011;3236;51.022;6.818;2022-11-20T10:17:54;30.15;;;15.00;;
6406;SDS011;3236;51.022;6.818;2022-11-20T10:20:40;30.85;;;15.02;;
6406;SDS011;3236;51.022;6.818;2022-11-20T10:28:48;41.20;;;18.85;;
6406;SDS011;3236;51.022;6.818;2022-11-20T10:31:35;33.83;;;15.02;;
6406;SDS011;3236;51.022;6.818;2022-11-20T10:34:12;33.20;;;15.75;;
6406;SDS011;3236;51.022;6.818;2022-11-20T10:36:46;35.95;;;17.20;;
6406;SDS011;3236;51.022;6.818;2022-11-20T10:39:18;34.95;;;16.50;;
6406;SDS011;3236;51.022;6.818;2022-11-20T10:41:53;39.08;;;16.27;;
6406;SDS011;3236;51.022;6.818;2022-11-20T10:44:21;35.30;;;15.40;;
6406;SDS011;3236;51.022;6.818;2022-11-20T10:47:11;34.17;;;15.20;;
6406;SDS011;3236;51.022;6.818;2022-11-20T10:49:41;33.72;;;17.35;;
6406;SDS011;3236;51.022;6.818;2022-11-20T10:52:12;33.95;;;15.95;;
6406;SDS011;3236;51.022;6.818;2022-11-20T10:54:47;33.25;;;15.30;;
6406;SDS011;3236;51.022;6.818;2022-11-20T10:57:24;32.55;;;14.95;;
6406;SDS011;3236;51.022;6.818;2022-11-20T11:00:02;29.92;;;14.23;;
6406;SDS011;3236;51.022;6.818;2022-11-20T11:02:37;39.63;;;16.73;;
6406;SDS011;3236;51.022;6.818;2022-11-20T11:05:19;33.92;;;14.98;;
6406;SDS011;3236;51.022;6.818;2022-11-20T11:07:50;36.53;;;14.57;;
6406;SDS011;3236;51.022;6.818;2022-11-20T11:10:22;30.23;;;14.52;;
6406;SDS011;3236;51.022;6.818;2022-11-20T11:12:54;30.70;;;14.15;;
6406;SDS011;3236;51.022;6.818;2022-11-20T11:15:25;36.33;;;14.77;;
6406;SDS011;3236;51.022;6.818;2022-11-20T11:17:54;34.08;;;15.48;;
6406;SDS011;3236;51.022;6.818;2022-11-20T11:20:24;32.53;;;16.13;;
6406;SDS011;3236;51.022;6.818;2022-11-20T11:22:52;31.13;;;15.05;;
6406;SDS011;3236;51.022;6.818;2022-11-20T11:25:25;32.72;;;15.35;;
6406;SDS011;3236;51.022;6.818;2022-11-20T11:27:53;33.45;;;16.40;;
6406;SDS011;3236;51.022;6.818;2022-11-20T11:30:23;30.50;;;14.57;;
6406;SDS011;3236;51.022;6.818;2022-11-20T11:33:02;34.85;;;16.58;;
6406;SDS011;3236;51.022;6.818;2022-11-20T11:35:32;41.08;;;18.70;;
6406;SDS011;3236;51.022;6.818;2022-11-20T11:38:03;35.97;;;18.50;;
6406;SDS011;3236;51.022;6.818;2022-11-20T11:40:33;33.88;;;17.40;;
6406;SDS011;3236;51.022;6.818;2022-11-20T11:43:06;36.33;;;18.13;;
6406;SDS011;3236;51.022;6.818;2022-11-20T11:45:57;31.15;;;15.90;;
6406;SDS011;3236;51.022;6.818;2022-11-20T11:48:25;36.03;;;17.10;;
6406;SDS011;3236;51.022;6.818;2022-11-20T11:50:53;39.45;;;19.33;;
6406;SDS011;3236;51.022;6.818;2022-11-20T11:53:21;35.63;;;16.65;;
6406;SDS011;3236;51.022;6.818;2022-11-20T11:55:52;36.40;;;18.23;;
6406;SDS011;3236;51.022;6.818;2022-11-20T11:58:29;40.40;;;17.92;;
6406;SDS011;3236;51.022;6.818;2022-11-20T12:01:10;35.10;;;16.08;;
6406;SDS011;3236;51.022;6.818;2022-11-20T12:03:50;39.13;;;17.27;;
6406;SDS011;3236;51.022;6.818;2022-11-20T12:06:23;40.40;;;18.88;;
6406;SDS011;3236;51.022;6.818;2022-11-20T12:08:55;38.35;;;18.23;;
6406;SDS011;3236;51.022;6.818;2022-11-20T12:11:29;35.08;;;14.93;;
6406;SDS011;3236;51.022;6.818;2022-11-20T12:14:02;31.48;;;16.92;;
6406;SDS011;3236;51.022;6.818;2022-11-20T12:16:41;37.33;;;17.13;;
6406;SDS011;3236;51.022;6.818;2022-11-20T12:19:08;38.55;;;18.48;;
6406;SDS011;3236;51.022;6.818;2022-11-20T12:21:46;34.95;;;16.30;;
6406;SDS011;3236;51.022;6.818;2022-11-20T12:24:42;39.58;;;17.48;;
6406;SDS011;3236;51.022;6.818;2022-11-20T12:30:14;35.05;;;16.00;;
6406;SDS011;3236;51.022;6.818;2022-11-20T12:32:55;33.40;;;16.88;;
6406;SDS011;3236;51.022;6.818;2022-11-20T12:35:57;40.55;;;20.30;;
6406;SDS011;3236;51.022;6.818;2022-11-20T12:38:41;40.72;;;18.40;;
6406;SDS011;3236;51.022;6.818;2022-11-20T12:41:39;38.97;;;19.95;;
6406;SDS011;3236;51.022;6.818;2022-11-20T12:44:48;39.90;;;19.48;;
6406;SDS011;3236;51.022;6.818;2022-11-20T12:47:49;38.65;;;17.83;;
6406;SDS011;3236;51.022;6.818;2022-11-20T12:50:40;41.15;;;18.45;;
6406;SDS011;3236;51.022;6.818;2022-11-20T12:53:20;35.70;;;16.77;;
6406;SDS011;3236;51.022;6.818;2022-11-20T12:55:58;38.50;;;18.42;;
6406;SDS011;3236;51.022;6.818;2022-11-20T12:58:39;44.60;;;20.00;;
6406;SDS011;3236;51.022;6.818;2022-11-20T13:01:13;36.05;;;17.48;;
6406;SDS011;3236;51.022;6.818;2022-11-20T13:04:06;36.25;;;17.63;;
6406;SDS011;3236;51.022;6.818;2022-11-20T13:06:40;40.83;;;17.90;;
6406;SDS011;3236;51.022;6.818;2022-11-20T13:09:08;39.10;;;17.60;;
6406;SDS011;3236;51.022;6.818;2022-11-20T13:11:44;41.08;;;18.38;;
6406;SDS011;3236;51.022;6.818;2022-11-20T13:14:20;37.42;;;16.67;;
6406;SDS011;3236;51.022;6.818;2022-11-20T13:16:55;34.17;;;16.60;;
6406;SDS011;3236;51.022;6.818;2022-11-20T13:19:28;39.80;;;17.43;;
6406;SDS011;3236;51.022;6.818;2022-11-20T13:21:55;32.78;;;16.58;;
6406;SDS011;3236;51.022;6.818;2022-11-20T13:24:24;34.38;;;17.10;;
6406;SDS011;3236;51.022;6.818;2022-11-20T13:27:16;36.17;;;17.48;;
6406;SDS011;3236;51.022;6.818;2022-11-20T13:29:46;34.67;;;16.92;;
6406;SDS011;3236;51.022;6.818;2022-11-20T13:32:25;34.97;;;17.45;;
6406;SDS011;3236;51.022;6.818;2022-11-20T13:34:58;40.00;;;18.70;;
6406;SDS011;3236;51.022;6.818;2022-11-20T13:37:28;38.50;;;17.63;;
6406;SDS011;3236;51.022;6.818;2022-11-20T13:40:19;24.60;;;12.75;;
6406;SDS011;3236;51.022;6.818;2022-11-20T13:42:54;33.70;;;17.30;;
6406;SDS011;3236;51.022;6.818;2022-11-20T13:45:27;36.63;;;16.08;;
6406;SDS011;3236;51.022;6.818;2022-11-20T13:47:56;34.05;;;16.52;;
6406;SDS011;3236;51.022;6.818;2022-11-20T13:50:40;41.97;;;18.38;;
6406;SDS011;3236;51.022;6.818;2022-11-20T13:53:23;35.45;;;16.27;;
6406;SDS011;3236;51.022;6.818;2022-11-20T13:56:01;37.05;;;18.23;;
6406;SDS011;3236;51.022;6.818;2022-11-20T13:58:40;43.30;;;21.38;;
6406;SDS011;3236;51.022;6.818;2022-11-20T14:01:19;30.40;;;16.02;;
6406;SDS011;3236;51.022;6.818;2022-11-20T14:03:47;32.60;;;16.38;;
6406;SDS011;3236;51.022;6.818;2022-11-20T14:06:25;36.47;;;17.05;;
6406;SDS011;3236;51.022;6.818;2022-11-20T14:08:53;34.72;;;16.30;;
6406;SDS011;3236;51.022;6.818;2022-11-20T14:11:22;32.45;;;16.52;;
6406;SDS011;3236;51.022;6.818;2022-11-20T14:13:59;34.90;;;15.48;;
6406;SDS011;3236;51.022;6.818;2022-11-20T14:16:31;36.75;;;17.05;;
6406;SDS011;3236;51.022;6.818;2022-11-20T14:21:55;41.20;;;19.15;;
6406;SDS011;3236;51.022;6.818;2022-11-20T14:24:35;32.17;;;15.73;;
6406;SDS011;3236;51.022;6.818;2022-11-20T14:27:02;34.83;;;17.00;;
6406;SDS011;3236;51.022;6.818;2022-11-20T14:29:33;36.03;;;16.38;;
6406;SDS011;3236;51.022;6.818;2022-11-20T14:32:02;35.22;;;17.15;;
6406;SDS011;3236;51.022;6.818;2022-11-20T14:34:31;39.00;;;17.10;;
6406;SDS011;3236;51.022;6.818;2022-11-20T14:37:04;35.95;;;16.17;;
6406;SDS011;3236;51.022;6.818;2022-11-20T14:39:40;34.35;;;16.55;;
6406;SDS011;3236;51.022;6.818;2022-11-20T14:42:14;36.38;;;17.38;;
6406;SDS011;3236;51.022;6.818;2022-11-20T14:44:43;36.75;;;17.92;;
6406;SDS011;3236;51.022;6.818;2022-11-20T14:47:12;36.30;;;16.90;;
6406;SDS011;3236;51.022;6.818;2022-11-20T14:49:41;38.40;;;16.90;;
6406;SDS011;3236;51.022;6.818;2022-11-20T14:52:11;31.80;;;15.02;;
6406;SDS011;3236;51.022;6.818;2022-11-20T14:54:45;36.53;;;17.10;;
6406;SDS011;3236;51.022;6.818;2022-11-20T14:57:23;37.55;;;17.38;;
6406;SDS011;3236;51.022;6.818;2022-11-20T15:02:46;34.97;;;18.10;;
6406;SDS011;3236;51.022;6.818;2022-11-20T15:05:14;34.67;;;16.70;;
6406;SDS011;3236;51.022;6.818;2022-11-20T15:07:46;32.88;;;16.77;;
6406;SDS011;3236;51.022;6.818;2022-11-20T15:10:22;38.03;;;18.13;;
6406;SDS011;3236;51.022;6.818;2022-11-20T15:12:51;38.70;;;18.35;;
6406;SDS011;3236;51.022;6.818;2022-11-20T15:15:23;42.28;;;18.80;;
6406;SDS011;3236;51.022;6.818;2022-11-20T15:17:54;41.67;;;19.00;;
6406;SDS011;3236;51.022;6.818;2022-11-20T15:20:22;40.00;;;19.38;;
6406;SDS011;3236;51.022;6.818;2022-11-20T15:22:52;35.60;;;18.88;;
6406;SDS011;3236;51.022;6.818;2022-11-20T15:25:20;43.80;;;19.65;;
6406;SDS011;3236;51.022;6.818;2022-11-20T15:27:50;44.88;;;20.45;;
6406;SDS011;3236;51.022;6.818;2022-11-20T15:30:22;43.70;;;19.45;;